Time;durP1;ratioP1;P1;durP2;ratioP2;P2;SDS_P1;SDS_P2;PMS_P1;PMS_P2;Temp;Humidity;BMP_temperature;BMP_pressure;BME280_temperature;BME280_humidity;BME280_pressure;Samples;Min_cycle;Max_cycle;Signal;HPM_P1;HPM_P2
2023/09/30 00:01:59;;;;;;;8.95;2.10;;;16.20;95.90;;;;;;5123534;27;20057;-78
2023/09/30 00:04:28;;;;;;;9.68;2.53;;;16.10;96.20;;;;;;5143524;27;20043;-78
2023/09/30 00:07:37;;;;;;;9.32;2.35;;;16.10;96.50;;;;;;5124293;27;20050;-77
2023/09/30 00:10:04;;;;;;;5.05;1.60;;;16.10;96.80;;;;;;4999286;28;20539;-78
2023/09/30 00:12:31;;;;;;;11.65;2.30;;;16.00;97.00;;;;;;5086103;27;20517;-82
2023/09/30 00:14:57;;;;;;;8.40;1.88;;;16.00;97.30;;;;;;5108505;27;20504;-78
2023/09/30 00:17:52;;;;;;;6.90;1.70;;;16.00;97.50;;;;;;5107468;27;20050;-77
2023/09/30 00:20:38;;;;;;;6.13;1.52;;;16.00;97.50;;;;;;5142512;27;20039;-78
2023/09/30 00:23:24;;;;;;;8.88;1.90;;;15.90;97.50;;;;;;5120554;27;20121;-78
2023/09/30 00:29:28;;;;;;;8.82;2.00;;;15.90;97.40;;;;;;5122115;27;20083;-78
2023/09/30 00:31:54;;;;;;;8.75;2.00;;;16.00;97.30;;;;;;5121624;27;20167;-78
2023/09/30 00:34:21;;;;;;;7.15;1.85;;;16.00;97.20;;;;;;5106514;27;20070;-78
2023/09/30 00:37:13;;;;;;;5.63;1.60;;;16.00;97.00;;;;;;5107369;27;21271;-78
2023/09/30 00:40:17;;;;;;;6.95;1.60;;;16.00;96.50;;;;;;5142072;27;20061;-78
2023/09/30 00:43:12;;;;;;;7.50;1.55;;;16.10;96.00;;;;;;5125646;27;20072;-82
2023/09/30 00:46:22;;;;;;;6.90;1.58;;;16.10;96.00;;;;;;5124792;27;20042;-81
2023/09/30 00:49:28;;;;;;;10.13;1.92;;;16.10;96.20;;;;;;5124219;27;20043;-79
2023/09/30 00:52:48;;;;;;;7.85;2.03;;;16.20;96.30;;;;;;5092811;27;20050;-78
2023/09/30 00:55:52;;;;;;;9.57;2.47;;;16.20;96.40;;;;;;5140871;27;20127;-77
2023/09/30 00:58:28;;;;;;;7.35;1.90;;;16.20;96.70;;;;;;5104940;27;20425;-78
2023/09/30 01:00:57;;;;;;;7.65;2.03;;;16.20;96.70;;;;;;5119453;27;20088;-81
2023/09/30 01:07:14;;;;;;;7.15;1.70;;;16.30;96.90;;;;;;5128921;27;20044;-78
2023/09/30 01:10:00;;;;;;;10.63;1.80;;;16.30;97.10;;;;;;5139031;27;20051;-78
2023/09/30 01:12:54;;;;;;;6.78;1.60;;;16.20;97.10;;;;;;5140692;27;20120;-78
2023/09/30 01:16:01;;;;;;;6.13;1.83;;;16.20;96.90;;;;;;5122240;27;20034;-78
2023/09/30 01:19:10;;;;;;;9.25;2.05;;;16.20;96.80;;;;;;5121702;27;20058;-80
2023/09/30 01:22:05;;;;;;;6.18;1.67;;;16.20;96.70;;;;;;5120712;27;20047;-82
2023/09/30 01:25:21;;;;;;;9.63;2.00;;;16.20;96.70;;;;;;5122261;27;20821;-78
2023/09/30 01:28:31;;;;;;;8.18;1.88;;;16.20;96.60;;;;;;5031349;28;20046;-79
2023/09/30 01:31:22;;;;;;;12.25;1.85;;;16.20;96.60;;;;;;5047975;28;20228;-77
2023/09/30 01:34:08;;;;;;;6.65;1.88;;;16.20;96.60;;;;;;5065012;28;20155;-79
2023/09/30 01:36:34;;;;;;;8.20;2.00;;;16.20;96.70;;;;;;5063469;28;20063;-78
2023/09/30 01:39:03;;;;;;;9.52;1.52;;;16.20;96.70;;;;;;5067779;28;20168;-78
2023/09/30 01:41:29;;;;;;;5.68;1.52;;;16.10;96.70;;;;;;5063386;28;20090;-78
2023/09/30 01:43:55;;;;;;;5.55;1.63;;;16.20;96.80;;;;;;5044623;28;20055;-78
2023/09/30 01:47:16;;;;;;;7.88;1.70;;;16.10;96.80;;;;;;5051008;28;20085;-80
2023/09/30 01:49:43;;;;;;;7.63;1.50;;;16.10;96.70;;;;;;5079269;28;20054;-81
2023/09/30 01:52:45;;;;;;;7.35;1.90;;;16.10;96.80;;;;;;5063551;28;20036;-79
2023/09/30 01:55:37;;;;;;;9.85;1.60;;;16.00;96.70;;;;;;5062912;28;20116;-80
2023/09/30 02:02:00;;;;;;;7.35;1.67;;;16.00;96.60;;;;;;5140904;27;20046;-79
2023/09/30 02:04:26;;;;;;;6.30;1.50;;;15.90;96.20;;;;;;5120567;27;20485;-78
2023/09/30 02:07:18;;;;;;;8.57;1.58;;;15.90;96.30;;;;;;5119050;27;20039;-78
2023/09/30 02:13:12;;;;;;;5.75;1.67;;;15.90;95.70;;;;;;5073098;28;20052;-79
2023/09/30 02:16:00;;;;;;;8.18;1.70;;;15.80;95.20;;;;;;5094063;28;20421;-78
2023/09/30 02:18:50;;;;;;;6.32;1.50;;;15.80;95.20;;;;;;5076601;28;20048;-78
2023/09/30 02:21:53;;;;;;;7.00;1.42;;;15.80;95.00;;;;;;5078161;28;20120;-77
2023/09/30 02:24:46;;;;;;;4.72;1.58;;;15.80;94.80;;;;;;5063552;28;20541;-81
2023/09/30 02:27:45;;;;;;;5.38;1.33;;;15.70;94.70;;;;;;5076060;28;20796;-78
2023/09/30 02:30:19;;;;;;;7.93;1.67;;;15.50;94.50;;;;;;5078143;28;20059;-83
2023/09/30 02:32:46;;;;;;;6.28;1.55;;;15.80;94.80;;;;;;5077890;28;20517;-79
2023/09/30 02:35:12;;;;;;;6.40;1.35;;;15.70;94.80;;;;;;5094896;28;20055;-81
2023/09/30 02:41:05;;;;;;;8.07;1.90;;;15.70;94.80;;;;;;5117355;27;20046;-80
2023/09/30 02:43:31;;;;;;;7.30;1.30;;;15.70;95.00;;;;;;5122623;27;20058;-78
2023/09/30 02:49:37;;;;;;;9.00;1.60;;;15.70;94.90;;;;;;5140638;27;20057;-78
2023/09/30 02:52:30;;;;;;;5.90;1.70;;;15.70;95.00;;;;;;5107758;27;20043;-78
2023/09/30 02:55:15;;;;;;;8.27;1.92;;;15.60;94.70;;;;;;5121034;27;20039;-78
2023/09/30 02:58:02;;;;;;;5.63;1.40;;;15.60;94.40;;;;;;5108216;27;20513;-78
2023/09/30 03:01:09;;;;;;;8.98;1.90;;;15.60;94.10;;;;;;5144413;27;20066;-83
2023/09/30 03:03:47;;;;;;;9.50;1.90;;;15.60;93.80;;;;;;5143397;27;20114;-78
2023/09/30 03:06:36;;;;;;;8.38;1.40;;;15.50;93.90;;;;;;5115691;27;20470;-79
2023/09/30 03:09:31;;;;;;;4.88;1.27;;;15.50;93.30;;;;;;5131732;27;20039;-78
2023/09/30 03:12:36;;;;;;;5.88;1.30;;;15.50;92.80;;;;;;5155629;27;20034;-80
2023/09/30 03:15:04;;;;;;;6.53;1.60;;;15.50;92.50;;;;;;5138886;27;20043;-80
2023/09/30 03:17:31;;;;;;;7.25;1.75;;;15.50;92.50;;;;;;5134693;27;20063;-83
2023/09/30 03:20:19;;;;;;;7.32;1.85;;;15.50;92.30;;;;;;5117971;27;20051;-79
2023/09/30 03:22:48;;;;;;;6.88;1.58;;;15.50;91.90;;;;;;5128998;27;20069;-80
2023/09/30 03:25:17;;;;;;;5.18;1.30;;;15.50;92.10;;;;;;5126263;27;20052;-77
2023/09/30 03:28:27;;;;;;;7.63;1.50;;;15.50;92.20;;;;;;5113861;27;20082;-77
2023/09/30 03:31:25;;;;;;;6.70;1.60;;;15.50;92.00;;;;;;5128373;27;20088;-83
2023/09/30 03:34:03;;;;;;;7.07;1.67;;;15.40;92.20;;;;;;5090874;27;20061;-80
2023/09/30 03:37:07;;;;;;;7.78;1.75;;;15.40;92.50;;;;;;5125884;27;20046;-78
2023/09/30 03:39:36;;;;;;;5.00;1.58;;;15.40;92.60;;;;;;5127521;27;20129;-76
2023/09/30 03:42:29;;;;;;;5.32;1.40;;;15.30;92.90;;;;;;5145688;27;20061;-80
2023/09/30 03:44:55;;;;;;;8.93;1.45;;;15.30;93.20;;;;;;5114420;27;20054;-82
2023/09/30 03:47:40;;;;;;;5.78;1.70;;;15.20;93.30;;;;;;5135179;27;20366;-81
2023/09/30 03:50:31;;;;;;;4.80;1.30;;;15.20;93.40;;;;;;5116335;27;20045;-82
2023/09/30 03:53:40;;;;;;;6.97;1.70;;;15.20;93.60;;;;;;5126316;27;20045;-79
2023/09/30 03:59:40;;;;;;;7.82;1.60;;;15.20;93.50;;;;;;5139533;27;20391;-78
2023/09/30 04:02:33;;;;;;;9.98;2.08;;;15.20;93.60;;;;;;5124582;27;20504;-81
2023/09/30 04:05:17;;;;;;;6.20;1.50;;;16.10;93.70;;;;;;5099340;28;20472;-79
2023/09/30 04:07:43;;;;;;;5.55;1.60;;;15.20;93.60;;;;;;5066957;28;20051;-78
2023/09/30 04:10:35;;;;;;;6.82;1.73;;;15.20;93.70;;;;;;5048628;28;20082;-80
2023/09/30 04:13:21;;;;;;;6.72;1.60;;;15.20;93.60;;;;;;5095366;28;20067;-80
2023/09/30 04:15:49;;;;;;;;;;;15.20;93.80;;;;;;5075393;27;20051;-78
2023/09/30 04:18:41;;;;;;;7.97;1.70;;;15.20;93.90;;;;;;5081737;28;20368;-78
2023/09/30 04:21:07;;;;;;;9.30;1.80;;;15.10;93.90;;;;;;5098689;28;20140;-81
2023/09/30 04:23:36;;;;;;;8.23;1.92;;;15.10;94.00;;;;;;5063071;28;20133;-78
2023/09/30 04:26:09;;;;;;;10.88;1.95;;;15.00;94.10;;;;;;5048089;28;20067;-79
2023/09/30 04:29:27;;;;;;;8.32;1.70;;;15.10;94.30;;;;;;5081617;28;20212;-78
2023/09/30 04:31:54;;;;;;;8.05;1.60;;;15.00;94.50;;;;;;5063241;28;20047;-78
2023/09/30 04:34:27;;;;;;;11.50;2.00;;;15.00;94.70;;;;;;5064700;28;20051;-80
2023/09/30 04:37:30;;;;;;;8.48;2.10;;;14.20;94.80;;;;;;5120808;27;20046;-80
2023/09/30 04:40:19;;;;;;;9.48;1.65;;;15.00;95.00;;;;;;5106283;27;20050;-78
2023/09/30 04:43:35;;;;;;;7.75;1.80;;;15.00;95.10;;;;;;5140641;27;20388;-83
2023/09/30 04:46:27;;;;;;;7.93;1.75;;;15.00;95.20;;;;;;5035989;28;20088;-78
2023/09/30 04:49:30;;;;;;;12.07;1.85;;;15.00;95.30;;;;;;5005873;28;20217;-78
2023/09/30 04:52:40;;;;;;;9.65;1.67;;;15.00;95.40;;;;;;5006556;28;20085;-80
2023/09/30 04:55:29;;;;;;;8.68;1.83;;;15.00;95.60;;;;;;5015796;28;20064;-78
2023/09/30 04:58:32;;;;;;;6.70;1.70;;;15.00;95.90;;;;;;5035128;28;20515;-79
2023/09/30 05:01:35;;;;;;;9.30;1.65;;;14.90;95.90;;;;;;5034353;28;20523;-78
2023/09/30 05:04:00;;;;;;;9.40;2.13;;;14.90;95.90;;;;;;5033542;28;20040;-78
2023/09/30 05:07:03;;;;;;;8.40;2.17;;;14.90;96.10;;;;;;5003076;28;20084;-80
2023/09/30 05:10:04;;;;;;;7.93;1.88;;;14.90;96.30;;;;;;5038341;28;20074;-78
2023/09/30 05:13:17;;;;;;;8.70;1.60;;;14.90;96.40;;;;;;5031496;28;20168;-78
2023/09/30 05:16:08;;;;;;;10.02;1.85;;;14.90;96.60;;;;;;5040725;28;20057;-82
2023/09/30 05:19:10;;;;;;;7.45;1.80;;;14.80;96.80;;;;;;5057887;28;20064;-77
2023/09/30 05:22:10;;;;;;;10.57;1.60;;;14.90;96.80;;;;;;5045583;28;21295;-78
2023/09/30 05:25:07;;;;;;;6.13;1.35;;;14.80;96.90;;;;;;5021165;28;20485;-79
2023/09/30 05:27:33;;;;;;;11.15;1.83;;;14.80;97.20;;;;;;5033502;28;20130;-78
2023/09/30 05:32:58;;;;;;;7.88;1.70;;;14.80;97.50;;;;;;5035171;28;20048;-74
2023/09/30 05:35:35;;;;;;;8.77;1.73;;;14.80;97.70;;;;;;5016024;28;20047;-79
2023/09/30 05:38:08;;;;;;;9.40;1.60;;;14.70;97.90;;;;;;5072002;28;20563;-76
2023/09/30 05:40:35;;;;;;;11.55;1.98;;;14.70;98.00;;;;;;5059941;28;20041;-80
2023/09/30 05:43:12;;;;;;;9.10;1.83;;;14.70;98.30;;;;;;5104040;27;20061;-78
2023/09/30 05:46:13;;;;;;;9.63;1.83;;;14.70;98.60;;;;;;5118294;27;20082;-75
2023/09/30 05:52:33;;;;;;;10.48;2.15;;;14.70;98.90;;;;;;5139051;27;20046;-78
2023/09/30 05:56:03;;;;;;;9.05;1.80;;;14.60;99.10;;;;;;5138992;27;20446;-77
2023/09/30 05:58:56;;;;;;;8.57;1.88;;;14.60;99.30;;;;;;5139828;27;20050;-77
2023/09/30 06:01:28;;;;;;;11.63;2.10;;;14.60;99.20;;;;;;5123266;27;20213;-77
2023/09/30 06:04:37;;;;;;;11.07;2.03;;;14.60;99.40;;;;;;5135587;27;20163;-77
2023/09/30 06:07:35;;;;;;;7.55;1.52;;;14.60;99.50;;;;;;5125326;27;20047;-79
2023/09/30 06:10:21;;;;;;;9.82;1.70;;;14.60;99.70;;;;;;5139448;27;20095;-76
2023/09/30 06:13:24;;;;;;;7.22;1.70;;;14.60;99.80;;;;;;5128134;27;20087;-74
2023/09/30 06:16:38;;;;;;;13.50;1.98;;;14.60;99.80;;;;;;5054645;27;20142;-74
2023/09/30 06:19:49;;;;;;;6.88;1.67;;;14.70;99.90;;;;;;5132369;27;20470;-74
2023/09/30 06:22:38;;;;;;;8.75;1.73;;;13.90;99.80;;;;;;5102045;27;20055;-73
2023/09/30 06:25:43;;;;;;;14.25;1.77;;;14.70;99.90;;;;;;5137017;27;20051;-77
2023/09/30 06:28:14;;;;;;;9.10;1.90;;;14.70;99.90;;;;;;5136791;27;20179;-74
2023/09/30 06:30:53;;;;;;;10.35;2.28;;;14.70;99.90;;;;;;5071031;27;20057;-74
2023/09/30 06:34:01;;;;;;;13.55;2.22;;;14.80;99.90;;;;;;5085649;27;20134;-74
2023/09/30 06:37:08;;;;;;;8.30;1.83;;;14.80;99.90;;;;;;5106983;27;20133;-75
2023/09/30 06:39:57;;;;;;;11.40;2.42;;;14.90;99.90;;;;;;5121033;27;20082;-74
2023/09/30 06:42:33;;;;;;;12.35;2.05;;;14.90;99.90;;;;;;5077988;27;20107;-76
2023/09/30 06:45:41;;;;;;;11.35;2.70;;;14.90;99.90;;;;;;5078606;28;20093;-77
2023/09/30 06:49:10;;;;;;;6.50;1.67;;;14.90;99.90;;;;;;5071920;28;20503;-75
2023/09/30 06:52:15;;;;;;;12.00;2.28;;;15.00;99.90;;;;;;5026726;28;20087;-75
2023/09/30 06:55:39;;;;;;;12.68;1.90;;;15.30;99.90;;;;;;5028275;28;20057;-76
2023/09/30 07:01:57;;;;;;;10.65;2.20;;;15.20;99.90;;;;;;5025245;28;20153;-73
2023/09/30 07:04:54;;;;;;;9.20;1.90;;;15.30;99.90;;;;;;4996971;28;20060;-74
2023/09/30 07:07:59;;;;;;;9.57;1.58;;;15.40;99.90;;;;;;5039007;28;20427;-74
2023/09/30 07:11:29;;;;;;;8.20;2.10;;;15.40;99.80;;;;;;5038800;28;20045;-76
2023/09/30 07:14:27;;;;;;;7.65;2.13;;;15.30;99.80;;;;;;5037066;28;20052;-75
2023/09/30 07:18:00;;;;;;;10.30;1.98;;;15.60;99.70;;;;;;5039659;28;20408;-75
2023/09/30 07:20:56;;;;;;;10.73;1.90;;;15.60;99.70;;;;;;5022772;28;20465;-75
2023/09/30 07:23:45;;;;;;;10.10;1.90;;;15.70;99.60;;;;;;5013652;28;20078;-76
2023/09/30 07:26:44;;;;;;;9.50;1.98;;;15.80;99.60;;;;;;5060864;28;20059;-76
2023/09/30 07:29:54;;;;;;;10.50;1.80;;;15.90;99.60;;;;;;5062055;28;20075;-75
2023/09/30 07:32:33;;;;;;;9.27;1.77;;;15.90;99.60;;;;;;5048769;28;20406;-76
2023/09/30 07:35:30;;;;;;;8.35;1.85;;;16.00;99.60;;;;;;5074712;28;20043;-75
2023/09/30 07:38:16;;;;;;;9.00;1.60;;;16.10;99.60;;;;;;5058485;28;20667;-77
2023/09/30 07:41:19;;;;;;;8.47;2.17;;;16.20;99.50;;;;;;5060842;28;20131;-76
2023/09/30 07:44:21;;;;;;;11.90;2.20;;;16.20;99.40;;;;;;5060282;28;20325;-75
2023/09/30 07:46:54;;;;;;;9.73;1.80;;;16.30;99.30;;;;;;5038836;28;20143;-74
2023/09/30 07:50:50;;;;;;;6.35;1.70;;;16.30;99.10;;;;;;5135806;27;20446;-75
2023/09/30 07:53:42;;;;;;;6.97;1.80;;;16.50;98.80;;;;;;5118277;27;20253;-73
2023/09/30 07:56:25;;;;;;;8.98;1.73;;;16.50;98.70;;;;;;5103622;27;20056;-73
2023/09/30 07:58:57;;;;;;;6.65;2.05;;;16.60;98.40;;;;;;5103949;27;20047;-74
2023/09/30 08:02:01;;;;;;;7.85;1.70;;;16.70;98.30;;;;;;5086841;27;20058;-75
2023/09/30 08:05:05;;;;;;;8.68;2.40;;;16.90;97.90;;;;;;5126416;27;20050;-76
2023/09/30 08:07:43;;;;;;;6.38;1.70;;;17.00;97.40;;;;;;5102739;27;20047;-74
2023/09/30 08:10:47;;;;;;;8.85;2.28;;;17.10;97.30;;;;;;5118066;27;20451;-76
2023/09/30 08:13:25;;;;;;;9.63;1.77;;;17.30;96.60;;;;;;5116738;27;20536;-75
2023/09/30 08:16:30;;;;;;;8.50;1.92;;;17.40;96.40;;;;;;5123226;27;20108;-75
2023/09/30 08:19:10;;;;;;;8.98;1.98;;;17.50;95.90;;;;;;5110732;27;20390;-75
2023/09/30 08:22:11;;;;;;;6.25;2.22;;;17.60;95.70;;;;;;5120428;27;20082;-74
2023/09/30 08:25:17;;;;;;;8.23;1.83;;;17.80;94.60;;;;;;5119743;27;20043;-78
2023/09/30 08:28:13;;;;;;;8.48;1.77;;;17.90;94.40;;;;;;5115073;27;20053;-78
2023/09/30 08:30:46;;;;;;;8.23;1.60;;;18.00;94.00;;;;;;5098978;27;20394;-74
2023/09/30 08:33:33;;;;;;;6.97;1.42;;;18.10;93.70;;;;;;5106616;27;20047;-80
2023/09/30 08:36:07;;;;;;;9.38;2.08;;;18.30;92.90;;;;;;5105934;27;20596;-81
2023/09/30 08:38:40;;;;;;;8.32;2.00;;;18.30;92.70;;;;;;5123786;27;20115;-79
2023/09/30 08:41:33;;;;;;;7.88;1.60;;;18.40;92.00;;;;;;5073851;27;20064;-79
2023/09/30 08:44:03;;;;;;;5.45;1.73;;;18.50;91.40;;;;;;5122814;27;21753;-79
2023/09/30 08:46:34;;;;;;;8.20;1.80;;;18.50;91.00;;;;;;5124179;27;20568;-78
2023/09/30 08:49:05;;;;;;;9.38;1.90;;;18.60;90.70;;;;;;5104110;27;20378;-80
2023/09/30 08:51:32;;;;;;;7.30;2.03;;;18.70;90.30;;;;;;5105657;27;20047;-78
2023/09/30 08:54:16;;;;;;;9.75;1.83;;;18.70;89.40;;;;;;5091983;27;20054;-80
2023/09/30 08:56:49;;;;;;;7.30;1.50;;;18.70;85.60;;;;;;5139599;27;20066;-80
2023/09/30 08:59:15;;;;;;;5.85;1.52;;;18.70;87.00;;;;;;5118133;27;20043;-79
2023/09/30 09:01:41;;;;;;;10.88;1.55;;;18.70;87.20;;;;;;5127246;27;20074;-80
2023/09/30 09:04:27;;;;;;;6.03;1.55;;;18.70;86.90;;;;;;5108496;27;20493;-79
2023/09/30 09:07:14;;;;;;;10.23;1.73;;;18.70;86.60;;;;;;5125707;27;20035;-79
2023/09/30 09:10:00;;;;;;;8.05;1.50;;;18.60;85.50;;;;;;5124486;27;20050;-80
2023/09/30 09:12:27;;;;;;;6.95;1.73;;;18.50;87.30;;;;;;5143132;27;20057;-79
2023/09/30 09:14:53;;;;;;;6.15;1.83;;;18.60;87.70;;;;;;5109594;27;20074;-80
2023/09/30 09:17:19;;;;;;;8.07;1.90;;;18.60;87.70;;;;;;5126503;27;20061;-81
2023/09/30 09:20:00;;;;;;;6.72;1.80;;;18.60;88.10;;;;;;5146921;27;20129;-80
2023/09/30 09:22:41;;;;;;;8.65;1.65;;;18.50;86.00;;;;;;5127465;27;20099;-79
2023/09/30 09:25:23;;;;;;;7.68;1.80;;;18.60;86.30;;;;;;5125864;27;20405;-80
2023/09/30 09:27:51;;;;;;;6.55;1.60;;;18.60;84.60;;;;;;5127643;27;20504;-81
2023/09/30 09:30:27;;;;;;;5.15;1.30;;;18.50;84.40;;;;;;5129043;27;20050;-80
2023/09/30 09:33:30;;;;;;;4.50;1.55;;;19.00;81.40;;;;;;5087842;27;20121;-80
2023/09/30 09:36:02;;;;;;;8.85;2.15;;;19.10;77.10;;;;;;5124353;27;20064;-79
2023/09/30 09:38:44;;;;;;;6.38;2.10;;;19.30;78.10;;;;;;5110485;27;20042;-79
2023/09/30 09:41:16;;;;;;;6.28;1.40;;;19.30;73.60;;;;;;5102071;27;20157;-79
2023/09/30 09:43:43;;;;;;;5.03;1.50;;;19.30;73.50;;;;;;5112098;27;20107;-79
2023/09/30 09:46:12;;;;;;;9.02;1.85;;;19.40;72.40;;;;;;5124021;27;20043;-78
2023/09/30 09:48:38;;;;;;;6.93;1.83;;;19.40;70.90;;;;;;5112466;27;20648;-78
2023/09/30 09:51:09;;;;;;;6.88;1.58;;;19.40;69.60;;;;;;5112943;27;20038;-79
2023/09/30 09:53:40;;;;;;;6.97;1.95;;;19.40;68.70;;;;;;5127512;27;20051;-78
2023/09/30 09:56:16;;;;;;;8.23;1.40;;;18.90;68.10;;;;;;5127310;27;20081;-79
2023/09/30 09:59:18;;;;;;;7.43;1.42;;;18.50;66.50;;;;;;5126529;27;20042;-73
2023/09/30 10:02:14;;;;;;;5.05;1.50;;;19.30;64.80;;;;;;5125152;27;20043;-74
2023/09/30 10:05:09;;;;;;;6.80;1.65;;;19.20;68.80;;;;;;5140866;27;20034;-75
2023/09/30 10:11:30;;;;;;;6.63;1.60;;;19.20;67.10;;;;;;5147340;27;20049;-73
2023/09/30 10:15:02;;;;;;;7.88;1.80;;;19.10;66.60;;;;;;5143725;27;20047;-74
2023/09/30 10:18:23;;;;;;;5.53;1.30;;;18.40;66.70;;;;;;5145955;27;20070;-74
2023/09/30 10:21:45;;;;;;;5.15;1.15;;;18.30;68.30;;;;;;5069755;27;20301;-74
2023/09/30 10:28:13;;;;;;;5.55;1.85;;;19.00;69.30;;;;;;5050653;28;20052;-73
2023/09/30 10:31:37;;;;;;;9.20;2.08;;;19.00;70.20;;;;;;5050951;28;20075;-77
2023/09/30 10:34:21;;;;;;;11.65;2.35;;;19.10;69.90;;;;;;5034958;28;20049;-79
2023/09/30 10:36:57;;;;;;;6.95;2.10;;;19.20;69.90;;;;;;5018354;28;20059;-78
2023/09/30 10:40:07;;;;;;;7.45;1.50;;;19.90;68.60;;;;;;5029735;28;20106;-77
2023/09/30 10:43:19;;;;;;;5.00;1.38;;;19.40;66.70;;;;;;5029086;28;20132;-74
2023/09/30 10:46:34;;;;;;;4.87;1.20;;;19.70;65.80;;;;;;5039380;28;20040;-74
2023/09/30 10:49:38;;;;;;;10.30;1.90;;;19.90;64.00;;;;;;5041972;28;20826;-72
2023/09/30 10:56:23;;;;;;;5.40;1.60;;;20.20;55.20;;;;;;5023132;28;20054;-76
2023/09/30 10:59:25;;;;;;;7.28;1.40;;;20.40;51.50;;;;;;5061106;28;20067;-76
2023/09/30 11:03:09;;;;;;;5.05;1.60;;;20.70;50.50;;;;;;5087972;28;20042;-75
2023/09/30 11:06:21;;;;;;;6.40;1.60;;;20.80;40.20;;;;;;5080908;28;20864;-77
2023/09/30 11:09:51;;;;;;;4.15;1.23;;;21.10;37.80;;;;;;5102048;28;20074;-76
2023/09/30 11:13:05;;;;;;;5.97;1.33;;;20.70;25.20;;;;;;5102600;28;20040;-75
2023/09/30 11:16:09;;;;;;;3.33;1.30;;;21.70;21.00;;;;;;5102040;28;20090;-75
2023/09/30 11:19:08;;;;;;;3.83;1.58;;;21.90;1.80;;;;;;5063102;28;20052;-75
2023/09/30 11:22:00;;;;;;;8.43;1.80;;;22.00;1.00;;;;;;5066101;28;20119;-75
2023/09/30 11:25:24;;;;;;;6.05;1.98;;;22.10;1.50;;;;;;5061985;28;20063;-75
2023/09/30 11:28:42;;;;;;;5.97;1.50;;;22.30;1.00;;;;;;5040307;28;20064;-75
2023/09/30 11:31:37;;;;;;;4.07;1.30;;;22.50;1.00;;;;;;5036478;28;20049;-76
2023/09/30 11:38:26;;;;;;;4.38;1.73;;;23.00;1.00;;;;;;5101918;28;20331;-77
2023/09/30 11:41:08;;;;;;;4.82;1.60;;;23.50;1.00;;;;;;5083039;28;20711;-76
2023/09/30 11:44:18;;;;;;;5.22;1.63;;;23.60;1.00;;;;;;5100761;28;20615;-74
2023/09/30 11:47:37;;;;;;;3.83;1.20;;;24.00;1.00;;;;;;5100866;28;20150;-74
2023/09/30 11:50:50;;;;;;;5.00;1.58;;;24.40;1.00;;;;;;5083987;28;20042;-75
2023/09/30 11:53:33;;;;;;;;;;;24.70;99.90;;;;;;5097493;27;20058;-75
2023/09/30 11:59:31;;;;;;;4.28;1.33;;;23.80;1.00;;;;;;5039984;28;20075;-74
2023/09/30 12:02:40;;;;;;;4.47;1.35;;;23.30;1.00;;;;;;5105415;27;20050;-75
2023/09/30 12:05:36;;;;;;;7.15;1.83;;;23.30;1.00;;;;;;5094606;27;21111;-75
2023/09/30 12:08:46;;;;;;;6.63;1.60;;;23.40;1.00;;;;;;5122735;27;20047;-75
2023/09/30 12:11:59;;;;;;;7.75;1.33;;;23.40;1.00;;;;;;5120287;27;20153;-75
2023/09/30 12:15:16;;;;;;;5.75;1.90;;;23.20;1.00;;;;;;5139294;27;20054;-75
2023/09/30 12:18:34;;;;;;;4.30;1.70;;;23.00;1.00;;;;;;5068287;27;20047;-76
2023/09/30 12:21:22;;;;;;;7.22;1.45;;;22.60;1.00;;;;;;5125199;27;20053;-79
2023/09/30 12:27:50;;;;;;;4.72;1.52;;;22.30;1.00;;;;;;5139628;27;20042;-80
2023/09/30 12:30:54;;;;;;;5.55;1.55;;;22.20;1.00;;;;;;5125251;27;20063;-79
2023/09/30 12:33:30;;;;;;;6.13;2.20;;;22.50;1.00;;;;;;5124381;27;20043;-77
2023/09/30 12:36:04;;;;;;;5.18;1.80;;;22.60;1.00;;;;;;5139859;27;20046;-77
2023/09/30 12:38:50;;;;;;;7.82;1.67;;;22.90;1.00;;;;;;5106467;27;20069;-78
2023/09/30 12:41:50;;;;;;;5.35;1.48;;;22.90;1.00;;;;;;5108488;27;20051;-77
2023/09/30 12:44:53;;;;;;;4.07;1.17;;;22.80;1.00;;;;;;5106713;27;20089;-78
2023/09/30 12:47:47;;;;;;;6.35;1.30;;;22.60;1.00;;;;;;5140745;27;20476;-80
2023/09/30 12:50:21;;;;;;;4.90;1.85;;;22.60;1.00;;;;;;5117521;27;20125;-78
2023/09/30 12:53:00;;;;;;;4.85;1.40;;;22.40;1.00;;;;;;5106983;27;20583;-76
2023/09/30 12:55:26;;;;;;;5.25;1.50;;;22.20;1.00;;;;;;5139326;27;20047;-77
2023/09/30 13:01:24;;;;;;;3.60;1.35;;;22.30;1.00;;;;;;5126500;27;20042;-77
2023/09/30 13:04:25;;;;;;;6.20;1.48;;;22.20;1.00;;;;;;5116023;27;20066;-80
2023/09/30 13:06:51;;;;;;;7.63;1.38;;;22.10;1.00;;;;;;5120978;27;20077;-78
2023/09/30 13:09:16;;;;;;;5.13;1.50;;;21.90;1.00;;;;;;5121171;27;20125;-77
2023/09/30 13:12:08;;;;;;;5.60;1.63;;;21.80;1.00;;;;;;5119256;27;20480;-77
2023/09/30 13:14:55;;;;;;;3.78;1.35;;;21.70;1.00;;;;;;5096784;27;20054;-78
2023/09/30 13:17:49;;;;;;;5.53;1.30;;;21.80;1.00;;;;;;5119215;27;20081;-77
2023/09/30 13:20:43;;;;;;;4.78;1.17;;;22.00;1.00;;;;;;5123370;27;20058;-77
2023/09/30 13:23:09;;;;;;;5.50;1.27;;;22.50;1.00;;;;;;5121683;27;20058;-77
2023/09/30 13:25:35;;;;;;;4.88;1.25;;;22.60;1.00;;;;;;5139337;27;20063;-80
2023/09/30 13:28:21;;;;;;;5.60;1.33;;;22.70;1.00;;;;;;5121029;27;20075;-77
2023/09/30 13:31:14;;;;;;;6.82;1.60;;;22.70;1.00;;;;;;5140208;27;20042;-77
2023/09/30 13:34:12;;;;;;;4.50;1.23;;;22.60;1.00;;;;;;5114149;27;20069;-80
2023/09/30 13:37:01;;;;;;;5.55;1.40;;;22.30;1.00;;;;;;5121688;27;20389;-76
2023/09/30 13:39:27;;;;;;;9.57;1.95;;;22.10;1.00;;;;;;5122644;27;20038;-77
2023/09/30 13:42:28;;;;;;;4.60;1.45;;;22.00;1.00;;;;;;5113765;27;20069;-77
2023/09/30 13:44:57;;;;;;;6.57;1.83;;;22.10;1.00;;;;;;5119316;27;20035;-77
2023/09/30 13:47:58;;;;;;;4.45;1.27;;;22.00;1.00;;;;;;5102428;27;20467;-77
2023/09/30 13:50:45;;;;;;;7.20;1.98;;;21.90;1.00;;;;;;5138070;27;20050;-77
2023/09/30 13:53:43;;;;;;;6.32;1.63;;;21.80;1.00;;;;;;5106634;27;20046;-77
2023/09/30 13:56:30;;;;;;;5.55;1.67;;;21.80;1.00;;;;;;5111454;27;20051;-79
2023/09/30 13:58:57;;;;;;;9.55;3.35;;;21.90;1.00;;;;;;5094444;28;20055;-78
2023/09/30 14:05:09;;;;;;;5.88;1.63;;;22.40;1.00;;;;;;5030078;28;20132;-78
